Time;durP1;ratioP1;P1;durP2;ratioP2;P2;SDS_P1;SDS_P2;PMS_P1;PMS_P2;Temp;Humidity;BMP_temperature;BMP_pressure;BME280_temperature;BME280_humidity;BME280_pressure;Samples;Min_cycle;Max_cycle;Signal;HPM_P1;HPM_P2
2021/11/17 02:27:14;;;;;;;60.83;20.17;;;8.20;80.40;;;;;;5054600;28;20192;-79
2021/11/17 02:29:55;;;;;;;57.17;21.10;;;8.00;80.40;;;;;;5048185;28;20201;-80
2021/11/17 02:32:36;;;;;;;55.25;19.65;;;7.70;81.20;;;;;;5057725;28;20185;-80
2021/11/17 02:35:07;;;;;;;53.50;21.20;;;7.90;81.90;;;;;;5044860;28;20219;-79
2021/11/17 02:38:22;;;;;;;50.55;20.17;;;7.80;81.90;;;;;;5073923;28;20220;-79
2021/11/17 02:41:07;;;;;;;60.80;20.25;;;7.70;82.20;;;;;;5049749;28;20177;-79
2021/11/17 02:43:54;;;;;;;57.00;19.90;;;7.90;82.40;;;;;;5076282;28;20208;-79
2021/11/17 02:46:20;;;;;;;53.03;19.10;;;8.20;82.10;;;;;;5042735;28;20640;-79
2021/11/17 02:49:11;;;;;;;58.80;21.87;;;8.20;81.90;;;;;;5058097;28;20185;-79
2021/11/17 02:51:54;;;;;;;54.45;20.70;;;8.20;82.00;;;;;;5060129;28;20192;-79
2021/11/17 02:54:30;;;;;;;54.55;20.00;;;8.50;81.90;;;;;;5070395;28;20212;-80
2021/11/17 02:57:08;;;;;;;57.40;21.45;;;8.50;81.60;;;;;;5069946;28;20196;-79
2021/11/17 02:59:55;;;;;;;49.28;19.40;;;8.50;81.50;;;;;;5042778;28;20636;-79
2021/11/17 03:02:38;;;;;;;53.72;19.67;;;8.50;81.30;;;;;;5067481;28;20603;-79
2021/11/17 03:05:36;;;;;;;49.97;19.52;;;8.70;81.20;;;;;;5059131;28;20196;-79
2021/11/17 03:08:09;;;;;;;59.10;20.70;;;8.70;80.70;;;;;;5058708;28;20199;-79
2021/11/17 03:10:50;;;;;;;50.67;18.98;;;8.80;80.40;;;;;;5051334;28;20673;-80
2021/11/17 03:13:22;;;;;;;47.92;20.25;;;8.80;80.40;;;;;;5047948;28;20413;-79
2021/11/17 03:16:07;;;;;;;55.42;21.92;;;8.70;80.40;;;;;;5058146;28;20197;-79
2021/11/17 03:18:51;;;;;;;55.00;20.25;;;8.60;80.70;;;;;;5041289;28;20184;-78
2021/11/17 03:21:32;;;;;;;55.35;20.50;;;8.80;80.90;;;;;;5058244;28;20652;-79
2021/11/17 03:24:37;;;;;;;60.03;22.10;;;8.70;80.50;;;;;;5042864;28;20208;-79
2021/11/17 03:27:30;;;;;;;49.08;20.75;;;8.70;80.80;;;;;;5069362;28;20192;-78
2021/11/17 03:30:11;;;;;;;58.53;20.67;;;8.80;80.70;;;;;;5065996;28;20196;-79
2021/11/17 03:32:59;;;;;;;46.72;19.08;;;8.70;80.70;;;;;;5077605;28;20228;-79
2021/11/17 03:35:32;;;;;;;42.10;19.02;;;8.50;81.00;;;;;;5071864;28;20223;-80
2021/11/17 03:38:29;;;;;;;61.63;20.55;;;8.70;81.40;;;;;;5069151;28;20660;-79
2021/11/17 03:41:21;;;;;;;56.45;20.40;;;8.80;81.10;;;;;;5067685;28;20237;-78
2021/11/17 03:44:04;;;;;;;47.40;20.25;;;8.60;81.10;;;;;;5076374;28;20257;-80
2021/11/17 03:46:36;;;;;;;53.67;20.65;;;8.70;81.40;;;;;;5072207;28;20169;-79
2021/11/17 03:49:23;;;;;;;58.58;23.13;;;8.90;81.30;;;;;;5060058;28;20192;-79
2021/11/17 03:52:20;;;;;;;50.28;19.67;;;9.00;80.90;;;;;;5075286;28;20350;-79
2021/11/17 03:54:51;;;;;;;50.88;21.45;;;8.90;80.70;;;;;;5065252;28;20204;-79
2021/11/17 03:57:32;;;;;;;57.08;22.23;;;8.90;80.60;;;;;;5070684;28;20202;-79
2021/11/17 04:00:17;;;;;;;53.38;21.75;;;8.90;80.80;;;;;;5071487;28;20265;-78
2021/11/17 04:03:01;;;;;;;69.15;21.25;;;8.90;81.70;;;;;;5060542;28;20177;-79
2021/11/17 04:06:05;;;;;;;60.55;19.52;;;8.90;81.10;;;;;;5065844;28;20283;-78
2021/11/17 04:08:49;;;;;;;60.30;23.15;;;8.90;81.20;;;;;;5054666;28;20177;-79
2021/11/17 04:11:45;;;;;;;59.55;23.40;;;8.90;81.50;;;;;;5052307;28;20173;-80
2021/11/17 04:14:26;;;;;;;66.10;22.85;;;8.70;81.50;;;;;;5036639;28;20292;-80
2021/11/17 04:17:07;;;;;;;67.85;23.77;;;8.70;82.00;;;;;;5063739;28;20176;-80
2021/11/17 04:19:42;;;;;;;58.72;22.02;;;8.60;82.30;;;;;;5073209;28;20199;-80
2021/11/17 04:22:35;;;;;;;68.80;24.58;;;8.40;83.00;;;;;;5050650;28;20187;-80
2021/11/17 04:25:19;;;;;;;52.42;20.88;;;8.20;83.70;;;;;;5067307;28;20208;-80
2021/11/17 04:28:18;;;;;;;63.15;21.77;;;8.00;84.60;;;;;;5065091;28;20185;-79
2021/11/17 04:31:07;;;;;;;50.03;21.08;;;7.90;85.60;;;;;;5039978;28;20181;-79
2021/11/17 04:34:03;;;;;;;53.75;21.00;;;8.10;85.90;;;;;;5039728;28;20308;-79
2021/11/17 04:36:37;;;;;;;70.72;21.70;;;8.30;85.90;;;;;;5032498;28;20174;-79
2021/11/17 04:39:22;;;;;;;65.88;24.95;;;8.20;85.80;;;;;;5067347;28;20211;-79
2021/11/17 04:42:04;;;;;;;64.25;24.63;;;8.30;86.50;;;;;;5071021;28;20169;-80
2021/11/17 04:44:47;;;;;;;70.43;22.60;;;8.50;85.70;;;;;;5049377;28;20197;-80
2021/11/17 04:47:51;;;;;;;65.22;20.95;;;8.70;85.00;;;;;;5049696;28;20177;-80
2021/11/17 04:50:20;;;;;;;64.05;22.40;;;8.80;84.40;;;;;;5048002;28;20185;-80
2021/11/17 04:53:07;;;;;;;63.88;22.27;;;8.80;84.00;;;;;;5064650;28;20255;-79
2021/11/17 04:55:43;;;;;;;61.30;21.73;;;8.70;84.00;;;;;;5034663;28;20227;-80
2021/11/17 04:58:19;;;;;;;58.47;21.23;;;8.60;84.10;;;;;;5040193;28;20551;-79
2021/11/17 05:01:03;;;;;;;61.60;24.25;;;8.50;84.40;;;;;;5065229;28;20183;-79
2021/11/17 05:03:53;;;;;;;68.82;22.23;;;8.50;84.90;;;;;;5059710;28;20519;-79
2021/11/17 05:06:34;;;;;;;60.03;20.98;;;8.30;85.10;;;;;;5064619;28;20215;-80
2021/11/17 05:09:07;;;;;;;53.80;20.40;;;8.50;85.50;;;;;;5046220;28;20659;-80
2021/11/17 05:11:42;;;;;;;55.83;20.98;;;8.40;85.30;;;;;;5050537;28;20278;-80
2021/11/17 05:14:28;;;;;;;63.67;22.00;;;8.40;85.60;;;;;;5047946;28;20279;-79
2021/11/17 05:17:09;;;;;;;55.70;20.33;;;8.60;85.70;;;;;;5070229;28;20183;-79
2021/11/17 05:19:42;;;;;;;59.30;22.10;;;8.70;85.60;;;;;;5061990;28;20228;-80
2021/11/17 05:22:20;;;;;;;66.82;21.67;;;8.50;85.30;;;;;;5078729;28;20184;-81
2021/11/17 05:25:08;;;;;;;62.90;21.27;;;8.50;85.70;;;;;;5089303;28;20204;-79
2021/11/17 05:28:03;;;;;;;51.55;19.80;;;8.70;85.90;;;;;;5076139;28;20196;-80
2021/11/17 05:30:44;;;;;;;65.53;21.35;;;8.70;85.80;;;;;;5054432;28;20213;-80
2021/11/17 05:33:28;;;;;;;70.90;21.88;;;8.90;85.70;;;;;;5059243;28;20761;-80
2021/11/17 05:36:14;;;;;;;58.53;20.48;;;8.90;85.50;;;;;;5066296;28;20188;-79
2021/11/17 05:38:40;;;;;;;50.53;18.25;;;8.90;85.20;;;;;;5027853;28;20173;-80
2021/11/17 05:41:55;;;;;;;59.13;20.43;;;9.00;85.10;;;;;;5058610;28;20185;-80
2021/11/17 05:44:29;;;;;;;60.85;22.30;;;9.10;85.00;;;;;;5057743;28;20220;-80
2021/11/17 05:47:13;;;;;;;61.13;20.33;;;9.30;84.70;;;;;;5065198;28;20259;-80
2021/11/17 05:50:09;;;;;;;57.90;22.02;;;9.10;84.20;;;;;;5056716;28;20172;-80
2021/11/17 05:52:57;;;;;;;71.03;22.65;;;9.10;84.20;;;;;;5059840;28;20636;-80
2021/11/17 05:56:07;;;;;;;58.15;20.75;;;9.00;84.10;;;;;;5067057;28;20212;-80
2021/11/17 05:58:36;;;;;;;71.40;22.80;;;9.20;84.40;;;;;;5049885;28;20203;-80
2021/11/17 06:01:23;;;;;;;67.05;22.60;;;9.00;84.30;;;;;;5076249;28;20192;-80
2021/11/17 06:03:56;;;;;;;52.63;21.40;;;9.10;84.50;;;;;;5068997;28;20201;-80
2021/11/17 06:06:27;;;;;;;63.70;22.65;;;9.10;84.50;;;;;;5083746;28;20173;-80
2021/11/17 06:08:54;;;;;;;60.15;21.65;;;9.30;84.50;;;;;;5081774;28;20196;-80
2021/11/17 06:11:25;;;;;;;54.88;21.05;;;9.30;84.00;;;;;;5076947;28;20228;-80
2021/11/17 06:13:51;;;;;;;58.20;22.10;;;9.30;83.80;;;;;;5074959;28;20205;-80
2021/11/17 06:16:17;;;;;;;55.70;21.52;;;9.30;84.00;;;;;;5078078;28;20185;-80
2021/11/17 06:18:43;;;;;;;65.07;22.27;;;9.40;83.90;;;;;;5058626;28;20224;-80
2021/11/17 06:21:11;;;;;;;53.33;22.30;;;9.40;83.80;;;;;;5066895;28;20786;-79
2021/11/17 06:23:42;;;;;;;58.58;22.20;;;9.40;83.50;;;;;;5058092;28;20255;-80
2021/11/17 06:26:11;;;;;;;67.72;23.48;;;9.30;83.70;;;;;;5057876;28;20188;-80
2021/11/17 06:28:37;;;;;;;70.70;22.65;;;9.10;84.00;;;;;;5057876;28;20644;-80
2021/11/17 06:31:03;;;;;;;65.70;23.05;;;9.00;84.30;;;;;;5063149;28;20671;-80
2021/11/17 06:33:29;;;;;;;67.30;21.67;;;9.20;84.70;;;;;;5057928;28;20687;-79
2021/11/17 06:35:55;;;;;;;57.50;21.88;;;9.10;84.60;;;;;;5060162;28;20549;-80
2021/11/17 06:38:21;;;;;;;64.80;20.77;;;9.00;84.80;;;;;;5064570;28;20178;-80
2021/11/17 06:40:52;;;;;;;59.03;22.20;;;9.10;85.20;;;;;;5056624;28;20949;-79
2021/11/17 06:43:18;;;;;;;58.55;23.00;;;9.10;85.10;;;;;;5062794;28;20648;-80
2021/11/17 06:45:47;;;;;;;68.85;22.10;;;9.40;85.20;;;;;;5058325;28;20189;-80
2021/11/17 06:48:14;;;;;;;74.43;23.92;;;9.40;84.80;;;;;;5057588;28;20594;-81
2021/11/17 06:50:44;;;;;;;70.75;23.40;;;9.50;85.10;;;;;;5059281;28;20181;-80
2021/11/17 06:53:10;;;;;;;82.20;26.15;;;9.40;84.80;;;;;;5074188;28;20218;-81
2021/11/17 06:55:36;;;;;;;70.03;23.35;;;9.30;85.00;;;;;;5055948;28;20182;-80
2021/11/17 06:58:03;;;;;;;65.90;22.40;;;9.30;85.20;;;;;;5055290;28;20239;-80
2021/11/17 07:00:31;;;;;;;65.50;23.38;;;9.40;85.10;;;;;;5061816;28;20177;-80
2021/11/17 07:02:58;;;;;;;72.20;24.10;;;9.50;85.10;;;;;;5059934;28;20179;-81
2021/11/17 07:05:24;;;;;;;75.53;26.52;;;9.60;85.00;;;;;;5064343;28;20208;-81
2021/11/17 07:07:54;;;;;;;67.40;22.13;;;9.50;84.80;;;;;;5060045;28;20184;-81
2021/11/17 07:10:21;;;;;;;68.35;23.67;;;9.50;84.90;;;;;;5058394;28;20613;-81
2021/11/17 07:12:46;;;;;;;79.13;24.60;;;9.60;84.80;;;;;;5057878;28;20173;-82
2021/11/17 07:15:14;;;;;;;87.33;26.10;;;9.60;84.60;;;;;;5055827;28;20578;-83
2021/11/17 07:17:39;;;;;;;62.03;23.52;;;9.60;84.70;;;;;;5064701;28;20639;-83
2021/11/17 07:20:07;;;;;;;62.37;22.20;;;9.90;84.70;;;;;;5055175;28;20344;-81
2021/11/17 07:22:33;;;;;;;68.53;23.58;;;9.80;84.30;;;;;;5054595;28;20209;-82
2021/11/17 07:24:59;;;;;;;82.73;24.47;;;9.90;84.50;;;;;;5060857;28;20667;-81
2021/11/17 07:27:25;;;;;;;76.43;23.05;;;9.90;84.30;;;;;;5063612;28;20420;-81
2021/11/17 07:29:53;;;;;;;85.23;25.80;;;9.90;84.40;;;;;;5057992;28;20188;-82
2021/11/17 07:32:22;;;;;;;75.95;27.73;;;10.10;84.20;;;;;;5062500;28;20177;-81
2021/11/17 07:34:47;;;;;;;91.38;25.55;;;10.00;83.90;;;;;;5060700;28;20201;-81
2021/11/17 07:37:13;;;;;;;75.60;23.00;;;10.00;83.90;;;;;;5064770;28;20173;-80
2021/11/17 07:39:39;;;;;;;77.35;24.02;;;9.90;84.20;;;;;;5062795;28;20195;-79
2021/11/17 07:42:06;;;;;;;66.60;24.33;;;9.80;84.40;;;;;;5058065;28;20280;-79
2021/11/17 07:44:32;;;;;;;84.15;24.65;;;9.90;84.70;;;;;;5057000;28;20497;-79
2021/11/17 07:46:58;;;;;;;64.40;24.70;;;9.90;84.70;;;;;;5066978;28;20184;-80
2021/11/17 07:49:26;;;;;;;70.40;24.80;;;9.90;85.50;;;;;;5074637;28;20793;-81
2021/11/17 07:51:52;;;;;;;62.15;21.80;;;9.90;84.80;;;;;;5061260;28;20455;-81
2021/11/17 07:54:19;;;;;;;67.75;24.27;;;9.90;84.70;;;;;;5056645;28;20223;-83
2021/11/17 07:56:46;;;;;;;69.13;23.45;;;10.00;84.50;;;;;;5059397;28;20177;-81
2021/11/17 07:59:18;;;;;;;70.15;22.58;;;10.10;84.20;;;;;;5061536;28;20177;-81
2021/11/17 08:01:45;;;;;;;68.25;23.00;;;10.00;84.20;;;;;;5063419;28;20173;-81
2021/11/17 08:04:14;;;;;;;75.50;26.38;;;9.90;84.20;;;;;;5060027;28;20284;-82
2021/11/17 08:06:41;;;;;;;90.70;25.15;;;10.00;84.40;;;;;;5059737;28;20197;-83
2021/11/17 08:09:08;;;;;;;75.50;22.58;;;10.00;84.40;;;;;;5058525;28;20659;-82
2021/11/17 08:11:34;;;;;;;63.60;21.73;;;9.90;84.50;;;;;;5058585;28;20188;-82
2021/11/17 08:14:00;;;;;;;77.37;23.27;;;10.00;84.60;;;;;;5058341;28;20208;-82
2021/11/17 08:16:25;;;;;;;62.40;23.77;;;10.20;84.50;;;;;;5060975;28;20418;-82
2021/11/17 08:18:51;;;;;;;70.60;27.17;;;10.20;84.20;;;;;;5058305;28;20420;-82
2021/11/17 08:21:19;;;;;;;75.50;24.20;;;10.10;84.40;;;;;;5057801;28;20419;-82
2021/11/17 08:23:45;;;;;;;68.68;24.20;;;10.20;84.50;;;;;;5050447;28;20445;-82
2021/11/17 08:26:13;;;;;;;74.32;25.83;;;10.20;84.40;;;;;;5059353;28;20275;-82
2021/11/17 08:28:41;;;;;;;69.65;24.67;;;10.00;84.50;;;;;;5055932;28;20189;-83
2021/11/17 08:31:08;;;;;;;54.08;22.95;;;9.90;84.80;;;;;;5067080;28;20189;-83
2021/11/17 08:33:34;;;;;;;64.18;24.90;;;9.90;85.10;;;;;;5055185;28;20209;-82
2021/11/17 08:36:02;;;;;;;69.13;22.87;;;10.00;85.30;;;;;;5059897;28;20185;-82
2021/11/17 08:38:29;;;;;;;72.97;24.83;;;9.90;85.40;;;;;;5060276;28;20836;-82
2021/11/17 08:40:59;;;;;;;73.80;24.65;;;9.90;85.60;;;;;;5060861;28;20196;-82
2021/11/17 08:43:26;;;;;;;72.45;25.55;;;10.00;85.80;;;;;;5058861;28;20185;-82
2021/11/17 08:45:52;;;;;;;58.17;23.35;;;10.00;85.90;;;;;;5059500;28;20203;-79
2021/11/17 08:48:20;;;;;;;97.50;26.50;;;10.00;86.00;;;;;;5061583;28;20173;-80
2021/11/17 08:50:46;;;;;;;73.00;24.52;;;9.90;86.20;;;;;;5062736;28;20311;-82
2021/11/17 08:53:15;;;;;;;80.43;24.98;;;10.00;86.50;;;;;;5060352;28;20205;-82
2021/11/17 08:55:43;;;;;;;70.05;23.95;;;10.10;86.60;;;;;;5060061;28;20165;-81
2021/11/17 08:58:11;;;;;;;90.07;25.00;;;10.10;86.70;;;;;;5060365;28;20250;-81
2021/11/17 09:00:37;;;;;;;73.30;27.15;;;10.30;86.60;;;;;;5059303;28;20528;-82
2021/11/17 09:03:05;;;;;;;89.18;26.33;;;10.30;86.40;;;;;;5059171;28;20212;-82
2021/11/17 09:05:35;;;;;;;79.82;27.40;;;10.30;86.20;;;;;;5061619;28;20563;-82
2021/11/17 09:08:03;;;;;;;70.45;27.15;;;10.30;86.10;;;;;;5060287;28;20177;-82
2021/11/17 09:10:32;;;;;;;82.28;26.83;;;10.30;86.30;;;;;;5059962;28;20683;-82
2021/11/17 09:12:58;;;;;;;68.30;25.20;;;10.70;86.10;;;;;;5060330;28;20181;-82
2021/11/17 09:15:29;;;;;;;79.82;24.88;;;10.60;85.70;;;;;;5059733;28;20233;-82
2021/11/17 09:17:55;;;;;;;63.47;24.77;;;10.60;85.70;;;;;;5043694;28;20193;-81
2021/11/17 09:20:22;;;;;;;66.97;24.27;;;10.80;85.60;;;;;;5059707;28;20173;-81
2021/11/17 09:22:49;;;;;;;74.47;26.40;;;10.80;85.00;;;;;;5058445;28;20173;-82
2021/11/17 09:25:17;;;;;;;63.70;22.65;;;10.90;84.70;;;;;;5058308;28;20561;-81
2021/11/17 09:27:43;;;;;;;76.18;25.17;;;10.80;84.50;;;;;;5058351;28;20182;-81
2021/11/17 09:30:13;;;;;;;61.42;22.52;;;10.60;84.90;;;;;;5057925;28;20185;-81
2021/11/17 09:32:39;;;;;;;75.53;25.50;;;10.70;85.20;;;;;;5059551;28;20550;-81
2021/11/17 09:35:10;;;;;;;73.85;25.42;;;10.70;85.10;;;;;;5059024;28;20244;-81
2021/11/17 09:37:38;;;;;;;74.05;25.55;;;10.70;85.30;;;;;;5059295;28;20182;-81
2021/11/17 09:40:07;;;;;;;61.20;23.08;;;10.60;86.10;;;;;;5058691;28;20181;-81
2021/11/17 09:42:32;;;;;;;64.85;23.77;;;10.60;85.50;;;;;;5060036;28;20184;-81
2021/11/17 09:44:59;;;;;;;74.90;26.30;;;10.80;85.60;;;;;;5057943;28;20572;-81
2021/11/17 09:47:30;;;;;;;74.85;25.48;;;10.80;85.50;;;;;;5059181;28;20418;-81
2021/11/17 09:49:59;;;;;;;76.13;28.13;;;10.80;85.30;;;;;;5059394;28;20195;-81
2021/11/17 09:52:33;;;;;;;64.82;24.52;;;10.70;85.30;;;;;;5059150;28;20173;-81
2021/11/17 09:55:40;;;;;;;83.07;26.52;;;10.70;85.50;;;;;;5058232;28;20721;-81
2021/11/17 09:58:21;;;;;;;70.75;24.90;;;10.60;85.40;;;;;;5037448;28;20189;-81
2021/11/17 10:01:04;;;;;;;88.65;27.98;;;10.70;85.60;;;;;;5073646;28;20280;-81
2021/11/17 10:03:56;;;;;;;65.00;25.75;;;10.90;85.40;;;;;;5060827;28;20233;-79
2021/11/17 10:09:48;;;;;;;85.97;28.58;;;10.90;85.30;;;;;;5107491;28;20201;-80
2021/11/17 10:14:53;;;;;;;80.45;26.05;;;10.80;85.60;;;;;;5096212;28;20207;-79
2021/11/17 10:17:48;;;;;;;77.75;25.88;;;10.90;85.70;;;;;;5112091;28;20163;-79
2021/11/17 10:20:16;;;;;;;74.38;28.20;;;10.90;85.70;;;;;;5108702;28;20199;-79
2021/11/17 10:22:50;;;;;;;74.13;27.67;;;11.10;85.70;;;;;;5105692;28;20191;-80
2021/11/17 10:25:19;;;;;;;73.45;29.88;;;11.10;85.70;;;;;;5084399;28;20210;-80
2021/11/17 10:27:57;;;;;;;65.63;28.02;;;11.30;85.70;;;;;;5079270;28;20172;-80
2021/11/17 10:30:52;;;;;;;79.70;27.60;;;11.40;85.50;;;;;;5098932;28;20201;-80
2021/11/17 10:33:39;;;;;;;70.97;27.63;;;11.40;85.20;;;;;;5086922;28;20212;-80
2021/11/17 10:36:15;;;;;;;65.90;25.67;;;11.40;84.70;;;;;;5080469;28;20222;-79
2021/11/17 10:38:48;;;;;;;69.78;29.75;;;11.50;84.30;;;;;;5067798;28;20204;-80
2021/11/17 10:41:24;;;;;;;71.03;26.65;;;11.50;84.20;;;;;;5098569;28;20195;-79
2021/11/17 10:44:01;;;;;;;66.00;27.95;;;11.40;84.10;;;;;;5081129;28;20199;-80
2021/11/17 10:46:32;;;;;;;62.83;27.75;;;11.60;84.10;;;;;;5082755;28;20179;-79
2021/11/17 10:49:06;;;;;;;75.95;29.90;;;11.70;84.10;;;;;;5072105;28;20206;-80
2021/11/17 10:51:35;;;;;;;66.07;25.83;;;11.80;83.40;;;;;;5109110;28;20176;-80
2021/11/17 10:54:09;;;;;;;66.38;27.73;;;11.80;83.20;;;;;;5113304;28;20200;-80
2021/11/17 10:56:34;;;;;;;67.50;26.85;;;11.90;83.20;;;;;;5093789;28;20211;-80
2021/11/17 10:59:02;;;;;;;64.37;27.37;;;12.00;83.30;;;;;;5086146;28;20522;-80
2021/11/17 11:01:33;;;;;;;59.10;27.45;;;12.20;83.40;;;;;;5080829;28;20410;-80
2021/11/17 11:04:07;;;;;;;67.53;28.45;;;12.40;83.30;;;;;;5079738;28;20267;-79
2021/11/17 11:06:36;;;;;;;60.47;26.10;;;12.60;83.10;;;;;;5079969;28;20232;-80
2021/11/17 11:09:13;;;;;;;53.83;26.88;;;12.70;82.70;;;;;;5080130;28;20191;-80
2021/11/17 11:11:51;;;;;;;55.97;27.30;;;12.90;82.20;;;;;;5079791;28;20171;-80
2021/11/17 11:14:38;;;;;;;69.00;28.38;;;12.80;81.30;;;;;;5091868;28;20218;-79
2021/11/17 11:17:21;;;;;;;60.28;28.67;;;12.90;81.30;;;;;;5098328;28;20203;-80
2021/11/17 11:19:47;;;;;;;52.83;27.50;;;13.10;80.90;;;;;;5079564;28;20546;-80
2021/11/17 11:22:19;;;;;;;60.67;29.00;;;13.00;80.30;;;;;;5078323;28;20176;-78
2021/11/17 11:24:54;;;;;;;66.50;29.70;;;13.10;80.20;;;;;;5078081;28;20200;-80
2021/11/17 11:27:20;;;;;;;53.67;26.90;;;13.20;80.30;;;;;;5079801;28;20641;-80
2021/11/17 11:30:09;;;;;;;54.80;25.60;;;13.40;80.00;;;;;;5078128;28;20206;-80
2021/11/17 11:32:34;;;;;;;55.50;26.02;;;13.50;79.30;;;;;;5049658;28;20191;-79
2021/11/17 11:35:01;;;;;;;66.63;27.43;;;13.50;79.00;;;;;;5077531;28;20218;-80
2021/11/17 11:37:27;;;;;;;51.33;24.77;;;13.70;78.90;;;;;;5078799;28;20172;-79
2021/11/17 11:39:54;;;;;;;45.20;21.73;;;13.80;78.50;;;;;;5095213;28;20661;-79
2021/11/17 11:42:57;;;;;;;35.85;18.45;;;13.90;78.10;;;;;;5077258;28;20172;-79
2021/11/17 11:45:26;;;;;;;45.97;20.08;;;13.90;77.80;;;;;;5076368;28;20214;-80
2021/11/17 11:47:59;;;;;;;40.95;18.45;;;13.90;78.00;;;;;;5099447;28;20255;-80
2021/11/17 11:50:30;;;;;;;41.67;18.83;;;13.90;78.30;;;;;;5098745;28;20655;-80
2021/11/17 11:53:13;;;;;;;40.88;19.73;;;14.00;78.20;;;;;;5080613;28;20206;-80
2021/11/17 11:56:18;;;;;;;44.53;22.73;;;14.10;78.00;;;;;;5081090;28;20690;-80
2021/11/17 11:58:43;;;;;;;31.95;17.63;;;14.20;77.40;;;;;;5065469;28;20195;-80
2021/11/17 12:01:12;;;;;;;39.87;18.87;;;14.20;77.00;;;;;;5080948;28;20171;-80
2021/11/17 12:03:56;;;;;;;36.15;18.42;;;14.20;76.90;;;;;;5098122;28;20204;-80
2021/11/17 12:06:47;;;;;;;44.10;18.25;;;14.30;76.80;;;;;;5082041;28;20167;-80
2021/11/17 12:09:19;;;;;;;38.30;18.02;;;14.30;76.40;;;;;;5080292;28;20183;-80
2021/11/17 12:12:07;;;;;;;40.15;17.30;;;14.10;76.10;;;;;;5084899;28;20168;-80
2021/11/17 12:14:36;;;;;;;32.80;15.80;;;14.10;76.30;;;;;;5098566;28;20215;-80
2021/11/17 12:17:04;;;;;;;39.13;17.10;;;13.90;76.40;;;;;;5080560;28;20263;-80
2021/11/17 12:19:38;;;;;;;34.83;17.05;;;13.70;77.20;;;;;;5061005;28;20262;-80
2021/11/17 12:22:07;;;;;;;32.20;17.58;;;13.70;77.70;;;;;;5060911;28;20191;-80
2021/11/17 12:24:40;;;;;;;35.38;15.90;;;13.70;77.90;;;;;;5078263;28;20212;-80
2021/11/17 12:27:18;;;;;;;36.40;16.80;;;13.80;77.90;;;;;;5060435;28;20580;-80
2021/11/17 12:29:50;;;;;;;31.75;17.13;;;13.80;78.10;;;;;;5079168;28;20616;-80
2021/11/17 12:32:37;;;;;;;38.45;16.88;;;13.80;78.00;;;;;;5063075;28;20276;-80
2021/11/17 12:35:26;;;;;;;30.73;14.20;;;13.80;78.20;;;;;;5059420;28;20223;-80
2021/11/17 12:37:56;;;;;;;30.98;15.52;;;13.60;78.00;;;;;;5068807;28;20446;-80
2021/11/17 12:40:40;;;;;;;40.15;13.95;;;13.60;78.20;;;;;;5080476;28;20214;-80
2021/11/17 12:43:09;;;;;;;26.10;13.50;;;13.30;77.50;;;;;;5098541;28;20270;-80
2021/11/17 12:45:46;;;;;;;26.83;15.15;;;13.20;78.10;;;;;;5099375;28;20184;-80
2021/11/17 12:48:26;;;;;;;32.15;12.05;;;13.20;79.30;;;;;;5079683;28;20183;-79
2021/11/17 12:51:00;;;;;;;21.23;9.85;;;13.20;78.40;;;;;;5083343;28;20234;-79
2021/11/17 12:54:03;;;;;;;14.48;6.10;;;13.00;76.70;;;;;;5058887;28;20245;-80
2021/11/17 12:56:39;;;;;;;15.45;4.75;;;13.00;74.90;;;;;;5035122;28;20176;-80
2021/11/17 12:59:37;;;;;;;14.68;5.95;;;12.90;73.40;;;;;;5059219;28;20202;-80
2021/11/17 13:02:26;;;;;;;17.27;4.97;;;13.00;73.30;;;;;;5058198;28;20186;-80
2021/11/17 13:05:13;;;;;;;17.95;3.30;;;12.90;72.20;;;;;;5037105;28;20199;-79
2021/11/17 13:07:47;;;;;;;10.65;4.35;;;13.00;71.80;;;;;;5079726;28;20198;-80
2021/11/17 13:10:36;;;;;;;8.77;3.78;;;13.00;71.30;;;;;;5063537;28;20211;-81
2021/11/17 13:13:03;;;;;;;17.80;4.22;;;13.10;70.90;;;;;;5037072;28;20196;-82
2021/11/17 13:15:54;;;;;;;19.25;3.42;;;13.10;70.50;;;;;;5059808;28;20664;-81
2021/11/17 13:18:48;;;;;;;7.57;3.20;;;13.20;70.70;;;;;;5060627;28;20544;-81
2021/11/17 13:21:31;;;;;;;14.38;3.20;;;13.10;69.80;;;;;;5062786;28;20173;-81
2021/11/17 13:23:59;;;;;;;19.75;5.03;;;13.20;69.20;;;;;;5064702;28;20200;-81
2021/11/17 13:26:37;;;;;;;14.23;3.60;;;13.00;67.60;;;;;;5083597;28;20574;-81
2021/11/17 13:29:26;;;;;;;9.70;3.67;;;13.00;67.70;;;;;;5066033;28;20210;-80
2021/11/17 13:32:07;;;;;;;14.25;3.10;;;12.80;67.80;;;;;;5044529;28;20184;-81
2021/11/17 13:34:42;;;;;;;13.07;3.00;;;12.80;68.90;;;;;;5079466;28;20317;-81
2021/11/17 13:37:32;;;;;;;15.88;3.40;;;12.80;69.50;;;;;;5083560;28;20262;-81
2021/11/17 13:40:01;;;;;;;15.98;3.83;;;13.10;69.70;;;;;;5083889;28;20198;-81
2021/11/17 13:42:28;;;;;;;15.45;2.95;;;13.00;69.20;;;;;;5085412;28;20180;-80
2021/11/17 13:45:06;;;;;;;16.50;4.03;;;12.90;69.50;;;;;;5082803;28;20200;-81
2021/11/17 13:47:32;;;;;;;16.20;2.88;;;13.00;70.30;;;;;;5102288;28;20159;-80
2021/11/17 13:49:59;;;;;;;11.93;4.13;;;13.00;70.10;;;;;;5108581;28;20175;-81
2021/11/17 13:52:28;;;;;;;16.52;2.90;;;13.00;69.90;;;;;;5103909;28;20417;-81
2021/11/17 13:54:54;;;;;;;9.73;3.00;;;12.90;69.80;;;;;;5110365;28;20209;-81
2021/11/17 13:57:22;;;;;;;7.60;3.17;;;12.90;70.00;;;;;;5099079;28;20180;-80
2021/11/17 13:59:47;;;;;;;10.00;3.25;;;12.80;69.60;;;;;;5098902;28;20180;-81
2021/11/17 14:02:14;;;;;;;14.57;3.63;;;12.80;70.30;;;;;;5086529;28;20195;-81
2021/11/17 14:04:40;;;;;;;10.20;3.20;;;12.80;71.10;;;;;;5083186;28;20199;-80
2021/11/17 14:07:06;;;;;;;15.43;3.33;;;12.80;70.60;;;;;;5082898;28;20522;-80
2021/11/17 14:09:33;;;;;;;14.30;2.72;;;12.80;70.60;;;;;;5083636;28;20201;-81
2021/11/17 14:12:00;;;;;;;11.90;3.00;;;12.60;70.40;;;;;;5083126;28;20182;-81
2021/11/17 14:14:26;;;;;;;29.08;3.72;;;12.60;70.60;;;;;;5082334;28;20261;-80
2021/11/17 14:16:52;;;;;;;19.08;3.90;;;12.70;70.50;;;;;;5083407;28;20175;-81
2021/11/17 14:19:19;;;;;;;9.07;2.83;;;12.80;70.50;;;;;;5083666;28;20643;-81
2021/11/17 14:21:44;;;;;;;9.07;2.97;;;13.00;70.20;;;;;;5087996;28;20182;-81
2021/11/17 14:24:12;;;;;;;13.10;2.80;;;13.00;69.80;;;;;;5088130;28;20286;-81
2021/11/17 14:26:42;;;;;;;10.77;3.10;;;12.80;69.70;;;;;;5107740;28;20203;-81
2021/11/17 14:29:13;;;;;;;8.85;3.05;;;12.80;70.10;;;;;;5104910;28;20192;-81
2021/11/17 14:31:44;;;;;;;7.28;2.72;;;12.80;70.10;;;;;;5113440;28;20210;-81
2021/11/17 14:34:10;;;;;;;12.80;2.80;;;12.80;70.40;;;;;;5114250;28;20218;-81
2021/11/17 14:36:49;;;;;;;17.75;3.67;;;12.80;71.20;;;;;;5120358;28;20167;-82
2021/11/17 14:39:17;;;;;;;10.07;2.95;;;12.90;71.20;;;;;;5098798;28;20199;-82
2021/11/17 14:41:43;;;;;;;20.95;4.35;;;12.70;70.30;;;;;;5085544;28;20251;-82
2021/11/17 14:44:09;;;;;;;11.10;3.67;;;12.70;70.40;;;;;;5083889;28;20242;-81
2021/11/17 14:46:36;;;;;;;18.00;5.35;;;12.70;71.20;;;;;;5082748;28;20180;-81
2021/11/17 14:49:02;;;;;;;7.68;2.80;;;12.60;70.40;;;;;;5100224;28;20274;-82
2021/11/17 14:51:28;;;;;;;15.10;3.55;;;12.50;70.40;;;;;;5086642;28;20168;-82
2021/11/17 14:53:55;;;;;;;6.10;3.03;;;12.40;70.30;;;;;;5082344;28;20298;-82
2021/11/17 14:56:22;;;;;;;12.02;3.03;;;12.40;70.40;;;;;;5082383;28;20175;-83
2021/11/17 14:58:48;;;;;;;9.20;2.60;;;12.30;70.30;;;;;;5100353;28;20202;-81
2021/11/17 15:01:19;;;;;;;16.75;3.03;;;12.20;69.90;;;;;;5082771;28;20183;-82
2021/11/17 15:03:47;;;;;;;13.15;3.10;;;12.20;70.00;;;;;;5099251;28;20203;-82
2021/11/17 15:06:15;;;;;;;10.40;3.10;;;12.10;70.00;;;;;;5098245;28;20549;-83
2021/11/17 15:08:41;;;;;;;10.48;3.08;;;12.10;70.10;;;;;;5081223;28;20175;-82
2021/11/17 15:11:07;;;;;;;7.38;2.45;;;12.00;70.80;;;;;;5080468;28;20223;-83
2021/11/17 15:13:34;;;;;;;14.55;2.97;;;12.00;70.20;;;;;;5079847;28;20666;-82
2021/11/17 15:16:00;;;;;;;5.20;2.53;;;12.00;70.30;;;;;;5081669;28;20187;-83
2021/11/17 15:18:27;;;;;;;11.90;3.33;;;12.00;70.40;;;;;;5082542;28;20172;-83
2021/11/17 15:20:54;;;;;;;9.18;3.38;;;11.80;70.40;;;;;;5081420;28;20183;-83
2021/11/17 15:23:20;;;;;;;9.18;2.67;;;11.70;70.70;;;;;;5087263;28;20188;-83
2021/11/17 15:25:47;;;;;;;15.35;3.50;;;11.80;70.90;;;;;;5109370;28;20187;-83
2021/11/17 15:28:26;;;;;;;12.00;3.20;;;11.70;71.00;;;;;;5102248;28;20180;-82
2021/11/17 15:30:55;;;;;;;11.02;3.20;;;11.70;71.30;;;;;;5092427;28;20182;-83
2021/11/17 15:33:21;;;;;;;10.93;2.80;;;11.70;71.50;;;;;;5088572;28;20574;-83
2021/11/17 15:35:48;;;;;;;13.73;3.40;;;11.70;71.70;;;;;;5087714;28;20196;-81
2021/11/17 15:38:15;;;;;;;11.02;2.50;;;11.80;71.50;;;;;;5076520;28;20457;-82
2021/11/17 15:40:48;;;;;;;12.27;3.22;;;11.70;71.60;;;;;;5100880;28;20168;-81
2021/11/17 15:43:15;;;;;;;10.43;3.40;;;11.70;71.70;;;;;;5080768;28;20176;-82